createdAt,value
2022-09-26T00:01:07.856Z,100.00
2022-09-26T00:03:36.542Z,100.00
2022-09-26T00:06:08.510Z,100.00
2022-09-26T00:08:37.447Z,100.00
2022-09-26T00:11:11.460Z,100.00
2022-09-26T00:13:42.762Z,100.00
2022-09-26T00:16:11.805Z,100.00
2022-09-26T00:18:40.178Z,100.00
2022-09-26T00:21:11.594Z,100.00
2022-09-26T00:23:40.907Z,100.00
2022-09-26T00:26:09.486Z,100.00
2022-09-26T00:28:37.903Z,100.00
2022-09-26T00:31:07.069Z,100.00
2022-09-26T00:33:34.731Z,100.00
2022-09-26T00:36:03.015Z,100.00
2022-09-26T00:38:32.399Z,100.00
2022-09-26T00:41:00.514Z,100.00
2022-09-26T00:43:33.109Z,100.00
2022-09-26T00:46:05.092Z,100.00
2022-09-26T00:48:36.276Z,100.00
2022-09-26T00:51:05.943Z,100.00
2022-09-26T00:53:39.467Z,100.00
2022-09-26T00:56:10.989Z,100.00
2022-09-26T00:58:44.739Z,100.00
2022-09-26T01:01:13.247Z,100.00
2022-09-26T01:03:43.792Z,100.00
2022-09-26T01:06:12.804Z,100.00
2022-09-26T01:08:47.717Z,100.00
2022-09-26T01:11:17.083Z,100.00
2022-09-26T01:13:45.376Z,100.00
2022-09-26T01:16:14.020Z,100.00
2022-09-26T01:18:43.138Z,100.00
2022-09-26T01:21:27.925Z,100.00
2022-09-26T01:24:34.661Z,100.00
2022-09-26T01:27:17.835Z,100.00
2022-09-26T01:30:08.877Z,100.00
2022-09-26T01:33:05.688Z,100.00
2022-09-26T01:35:56.976Z,100.00
2022-09-26T01:38:36.261Z,100.00
2022-09-26T01:41:17.636Z,100.00
2022-09-26T01:43:56.650Z,100.00
2022-09-26T01:46:31.158Z,100.00
2022-09-26T01:49:09.223Z,100.00
2022-09-26T01:51:48.702Z,100.00
2022-09-26T01:54:21.431Z,100.00
2022-09-26T01:56:52.084Z,100.00
2022-09-26T01:59:25.368Z,100.00
2022-09-26T02:01:58.050Z,100.00
2022-09-26T02:04:32.554Z,100.00
2022-09-26T02:07:04.858Z,100.00
2022-09-26T02:09:38.759Z,100.00
2022-09-26T02:12:10.708Z,100.00
2022-09-26T02:14:41.136Z,100.00
2022-09-26T02:17:11.707Z,100.00
2022-09-26T02:19:51.449Z,100.00
2022-09-26T02:22:19.742Z,100.00
2022-09-26T02:24:47.322Z,100.00
2022-09-26T02:27:17.376Z,100.00
2022-09-26T02:29:45.304Z,100.00
2022-09-26T02:32:17.199Z,100.00
2022-09-26T02:34:48.575Z,100.00
2022-09-26T02:37:17.818Z,100.00
2022-09-26T02:39:47.185Z,100.00
2022-09-26T02:42:20.318Z,100.00
2022-09-26T02:45:05.823Z,100.00
2022-09-26T02:47:51.477Z,100.00
2022-09-26T02:50:35.771Z,100.00
2022-09-26T02:53:16.719Z,100.00
2022-09-26T02:55:52.003Z,100.00
2022-09-26T02:58:26.796Z,100.00
2022-09-26T03:01:02.587Z,100.00
2022-09-26T03:03:34.334Z,100.00
2022-09-26T03:06:06.577Z,100.00
2022-09-26T03:08:39.601Z,100.00
2022-09-26T03:11:10.961Z,100.00
2022-09-26T03:13:40.266Z,100.00
2022-09-26T03:16:10.409Z,100.00
2022-09-26T03:18:42.707Z,100.00
2022-09-26T03:21:11.989Z,100.00
2022-09-26T03:23:39.636Z,100.00
2022-09-26T03:26:10.934Z,100.00
2022-09-26T03:28:38.631Z,100.00
2022-09-26T03:31:06.554Z,100.00
2022-09-26T03:33:34.600Z,100.00
2022-09-26T03:36:05.149Z,100.00
2022-09-26T03:38:35.883Z,100.00
2022-09-26T03:41:03.817Z,100.00
2022-09-26T03:43:31.552Z,100.00
2022-09-26T03:46:03.333Z,100.00
2022-09-26T03:48:31.107Z,100.00
2022-09-26T03:51:02.400Z,100.00
2022-09-26T03:53:31.295Z,100.00
2022-09-26T03:56:05.479Z,100.00
2022-09-26T03:58:33.596Z,100.00
2022-09-26T04:01:06.118Z,100.00
2022-09-26T04:03:35.040Z,100.00
2022-09-26T04:06:02.958Z,100.00
2022-09-26T04:08:32.778Z,100.00
2022-09-26T04:11:02.277Z,100.00
2022-09-26T04:13:51.862Z,100.00
2022-09-26T04:16:23.116Z,100.00
2022-09-26T04:18:54.758Z,100.00
2022-09-26T04:21:22.209Z,100.00
2022-09-26T04:23:52.822Z,100.00
2022-09-26T04:26:23.606Z,100.00
2022-09-26T04:28:55.751Z,100.00
2022-09-26T04:31:24.673Z,100.00
2022-09-26T04:33:52.638Z,100.00
2022-09-26T04:36:20.331Z,100.00
2022-09-26T04:38:47.920Z,100.00
2022-09-26T04:41:17.421Z,100.00
2022-09-26T04:43:45.506Z,100.00
2022-09-26T04:46:20.873Z,100.00
2022-09-26T04:48:50.558Z,100.00
2022-09-26T04:51:20.412Z,100.00
2022-09-26T04:53:48.443Z,100.00
2022-09-26T04:56:18.233Z,100.00
2022-09-26T04:58:46.323Z,100.00
2022-09-26T05:01:18.070Z,100.00
2022-09-26T05:03:46.006Z,100.00
2022-09-26T05:06:15.221Z,100.00
2022-09-26T05:08:43.507Z,100.00
2022-09-26T05:11:11.081Z,100.00
2022-09-26T05:13:39.990Z,100.00
2022-09-26T05:16:10.011Z,100.00
2022-09-26T05:18:39.172Z,100.00
2022-09-26T05:21:07.743Z,100.00
2022-09-26T05:23:40.843Z,100.00
2022-09-26T05:26:16.989Z,100.00
2022-09-26T05:28:44.811Z,100.00
2022-09-26T05:31:12.703Z,100.00
2022-09-26T05:33:41.852Z,100.00
2022-09-26T05:36:10.019Z,100.00
2022-09-26T05:38:38.113Z,100.00
2022-09-26T05:41:06.140Z,100.00
2022-09-26T05:43:34.708Z,100.00
2022-09-26T05:46:04.381Z,100.00
2022-09-26T05:48:33.665Z,100.00
2022-09-26T05:51:07.963Z,100.00
2022-09-26T05:53:35.785Z,100.00
2022-09-26T05:56:03.723Z,100.00
2022-09-26T05:58:33.200Z,100.00
2022-09-26T06:01:02.357Z,100.00
2022-09-26T06:03:30.346Z,100.00
2022-09-26T06:06:02.032Z,100.00
2022-09-26T06:08:32.428Z,100.00
2022-09-26T06:11:01.237Z,100.00
2022-09-26T06:13:29.638Z,100.00
2022-09-26T06:16:01.507Z,100.00
2022-09-26T06:18:29.799Z,100.00
2022-09-26T06:20:57.542Z,100.00
2022-09-26T06:23:25.264Z,100.00
2022-09-26T06:25:54.431Z,100.00
2022-09-26T06:28:22.125Z,100.00
2022-09-26T06:30:49.755Z,100.00
2022-09-26T06:33:17.658Z,100.00
2022-09-26T06:35:45.738Z,100.00
2022-09-26T06:38:13.289Z,100.00
2022-09-26T06:40:41.490Z,100.00
2022-09-26T06:43:10.560Z,100.00
2022-09-26T06:45:38.373Z,100.00
2022-09-26T06:48:06.243Z,100.00
2022-09-26T06:50:34.081Z,100.00
2022-09-26T06:53:10.035Z,100.00
2022-09-26T06:55:37.975Z,99.50
2022-09-26T06:58:05.670Z,99.15
2022-09-26T07:00:35.829Z,98.09
2022-09-26T07:03:03.751Z,97.35
2022-09-26T07:05:32.087Z,96.26
2022-09-26T07:08:00.041Z,96.66
2022-09-26T07:10:28.417Z,93.11
2022-09-26T07:13:00.517Z,93.64
2022-09-26T07:15:28.362Z,93.33
2022-09-26T07:17:57.664Z,93.69
2022-09-26T07:20:25.465Z,94.16
2022-09-26T07:22:53.362Z,93.91
2022-09-26T07:25:21.192Z,93.91
2022-09-26T07:27:50.648Z,94.71
2022-09-26T07:30:18.762Z,93.75
2022-09-26T07:32:46.565Z,92.77
2022-09-26T07:35:15.909Z,93.58
2022-09-26T07:37:44.669Z,91.63
2022-09-26T07:40:12.490Z,91.48
2022-09-26T07:42:40.094Z,92.58
2022-09-26T07:45:29.310Z,91.72
2022-09-26T07:47:56.200Z,92.51
2022-09-26T07:50:25.473Z,92.72
2022-09-26T07:52:53.062Z,92.37
2022-09-26T07:55:22.456Z,92.11
2022-09-26T07:57:50.423Z,91.13
2022-09-26T08:00:19.509Z,91.21
2022-09-26T08:02:47.337Z,92.00
2022-09-26T08:05:16.822Z,91.91
2022-09-26T08:07:46.758Z,88.25
2022-09-26T08:10:19.219Z,87.36
2022-09-26T08:12:46.848Z,87.26
2022-09-26T08:15:14.836Z,88.38
2022-09-26T08:17:44.070Z,85.86
2022-09-26T08:20:11.880Z,85.25
2022-09-26T08:22:39.515Z,87.03
2022-09-26T08:25:10.228Z,84.64
2022-09-26T08:27:38.454Z,86.62
2022-09-26T08:30:09.076Z,84.11
2022-09-26T08:32:37.858Z,83.81
2022-09-26T08:35:06.589Z,84.22
2022-09-26T08:37:34.666Z,84.73
2022-09-26T08:40:02.637Z,86.36
2022-09-26T08:42:43.761Z,84.04
2022-09-26T08:45:30.734Z,83.40
2022-09-26T08:48:03.953Z,81.61
2022-09-26T08:50:39.864Z,79.23
2022-09-26T08:53:12.349Z,80.28
2022-09-26T08:55:43.333Z,78.76
2022-09-26T08:58:18.679Z,79.11
2022-09-26T09:00:49.431Z,80.51
2022-09-26T09:03:26.020Z,76.61
2022-09-26T09:06:00.139Z,79.13
2022-09-26T09:08:35.070Z,75.93
2022-09-26T09:11:12.772Z,76.56
2022-09-26T09:13:53.564Z,76.46
2022-09-26T09:16:40.416Z,76.84
2022-09-26T09:19:17.603Z,74.55
2022-09-26T09:22:10.164Z,77.38
2022-09-26T09:24:50.727Z,76.26
2022-09-26T09:30:21.652Z,73.36
2022-09-26T09:32:54.913Z,73.61
2022-09-26T09:35:29.613Z,75.17
2022-09-26T09:37:58.199Z,75.16
2022-09-26T09:40:31.892Z,76.45
2022-09-26T09:43:04.088Z,75.29
2022-09-26T09:45:40.414Z,75.63
2022-09-26T09:48:11.621Z,74.29
2022-09-26T09:50:44.501Z,74.50
2022-09-26T09:53:26.719Z,73.35
2022-09-26T09:56:06.960Z,74.68
2022-09-26T09:58:52.659Z,74.54
2022-09-26T10:01:28.574Z,74.44
2022-09-26T10:04:02.488Z,74.32
2022-09-26T10:06:44.157Z,72.54
2022-09-26T10:09:38.250Z,74.35
2022-09-26T10:12:13.917Z,72.89
2022-09-26T10:14:48.708Z,72.54
2022-09-26T10:17:19.978Z,74.03
2022-09-26T10:19:48.374Z,72.20
2022-09-26T10:22:20.443Z,71.88
2022-09-26T10:24:48.928Z,74.05
2022-09-26T10:27:18.015Z,71.05
2022-09-26T10:29:46.477Z,69.91
2022-09-26T10:32:17.866Z,72.56
2022-09-26T10:35:04.122Z,70.61
2022-09-26T10:37:32.690Z,71.03
2022-09-26T10:40:00.419Z,70.20
2022-09-26T10:42:32.175Z,70.68
2022-09-26T10:45:10.159Z,70.81
2022-09-26T10:47:40.192Z,70.51
2022-09-26T10:50:13.381Z,70.35
2022-09-26T10:52:45.736Z,70.51
2022-09-26T10:55:17.503Z,71.38
2022-09-26T10:57:49.420Z,71.02
2022-09-26T11:00:19.466Z,70.68
2022-09-26T11:02:48.164Z,70.20
2022-09-26T11:05:19.730Z,69.82
2022-09-26T11:07:50.027Z,67.93
2022-09-26T11:10:24.682Z,67.73
2022-09-26T11:12:58.536Z,67.73
2022-09-26T11:15:26.742Z,67.88
2022-09-26T11:17:55.414Z,69.23
2022-09-26T11:20:40.632Z,69.54
2022-09-26T11:23:19.447Z,70.66
2022-09-26T11:25:57.990Z,70.51
2022-09-26T11:28:31.893Z,70.59
2022-09-26T11:31:03.410Z,68.29
2022-09-26T11:33:31.422Z,70.09
2022-09-26T11:36:17.541Z,70.00
2022-09-26T11:38:47.154Z,69.30
2022-09-26T11:41:29.905Z,70.34
2022-09-26T11:44:04.357Z,70.12
2022-09-26T11:46:47.067Z,70.06
2022-09-26T11:49:38.827Z,69.53
2022-09-26T11:52:17.237Z,68.88
2022-09-26T11:55:04.852Z,69.44
2022-09-26T11:57:40.800Z,70.28
2022-09-26T12:00:12.379Z,69.61
2022-09-26T12:03:02.221Z,69.87
2022-09-26T12:05:43.576Z,71.07
2022-09-26T12:08:29.368Z,70.89
2022-09-26T12:11:11.517Z,71.35
2022-09-26T12:13:50.941Z,72.07
2022-09-26T12:16:23.199Z,71.75
2022-09-26T12:19:00.347Z,71.93
2022-09-26T12:21:37.386Z,71.50
2022-09-26T12:24:17.514Z,71.60
2022-09-26T12:26:54.543Z,72.63
2022-09-26T12:29:34.670Z,72.75
2022-09-26T12:32:21.440Z,72.80
2022-09-26T12:35:30.576Z,72.58
2022-09-26T12:38:23.748Z,72.63
2022-09-26T12:41:07.851Z,73.32
2022-09-26T12:44:01.072Z,73.46
2022-09-26T12:46:47.357Z,72.96
2022-09-26T12:49:35.324Z,71.83
2022-09-26T12:52:13.665Z,73.14
2022-09-26T12:55:04.647Z,74.28
2022-09-26T12:57:46.890Z,74.70
2022-09-26T13:00:18.762Z,75.73
2022-09-26T13:03:21.351Z,75.05
2022-09-26T13:06:25.286Z,74.97
2022-09-26T13:09:02.623Z,74.08
2022-09-26T13:11:41.444Z,75.33
2022-09-26T13:14:34.475Z,74.77
2022-09-26T13:17:08.554Z,72.05
2022-09-26T13:19:39.385Z,73.76
2022-09-26T13:22:27.595Z,75.04
2022-09-26T13:25:01.784Z,73.35
2022-09-26T13:27:35.702Z,72.66
2022-09-26T13:30:12.703Z,73.23
2022-09-26T13:32:51.189Z,75.27
2022-09-26T13:35:22.132Z,76.77
2022-09-26T13:38:07.468Z,76.41
2022-09-26T13:40:41.636Z,76.30
2022-09-26T13:43:25.147Z,74.89
2022-09-26T13:46:00.758Z,74.74
2022-09-26T13:48:39.120Z,76.08
2022-09-26T13:51:17.486Z,76.22
2022-09-26T13:53:55.278Z,77.07
2022-09-26T13:56:29.541Z,77.25
2022-09-26T13:59:04.993Z,77.49
2022-09-26T14:01:35.039Z,77.86
2022-09-26T14:04:18.990Z,78.08
2022-09-26T14:07:13.126Z,77.26
2022-09-26T14:10:03.661Z,76.99
2022-09-26T14:12:34.220Z,78.11
2022-09-26T14:15:19.548Z,78.28
2022-09-26T14:18:13.795Z,78.36
2022-09-26T14:20:57.591Z,78.21
2022-09-26T14:23:37.632Z,77.38
2022-09-26T14:26:08.035Z,78.08
2022-09-26T14:28:37.523Z,78.92
2022-09-26T14:31:43.181Z,79.51
2022-09-26T14:34:19.520Z,79.31
2022-09-26T14:36:48.669Z,80.24
2022-09-26T14:39:34.859Z,80.64
2022-09-26T14:42:15.685Z,79.87
2022-09-26T14:44:55.417Z,81.40
2022-09-26T14:47:24.909Z,81.36
2022-09-26T14:50:00.168Z,81.91
2022-09-26T14:52:28.143Z,82.39
2022-09-26T14:54:59.259Z,82.66
2022-09-26T14:57:30.960Z,84.04
2022-09-26T14:59:59.831Z,84.90
2022-09-26T15:02:39.238Z,85.08
2022-09-26T15:05:19.040Z,85.31
2022-09-26T15:07:50.704Z,85.43
2022-09-26T15:10:35.025Z,84.21
2022-09-26T15:13:14.798Z,84.97
2022-09-26T15:15:51.664Z,85.29
2022-09-26T15:18:31.370Z,84.91
2022-09-26T15:21:05.431Z,85.87
2022-09-26T15:23:44.465Z,86.03
2022-09-26T15:26:14.770Z,86.25
2022-09-26T15:28:46.881Z,86.90
2022-09-26T15:31:26.410Z,87.35
2022-09-26T15:34:02.440Z,87.81
2022-09-26T15:36:34.623Z,88.68
2022-09-26T15:39:37.586Z,89.50
2022-09-26T15:42:21.742Z,90.95
2022-09-26T15:44:54.795Z,90.96
2022-09-26T15:47:39.144Z,91.88
2022-09-26T15:50:11.466Z,92.11
2022-09-26T15:52:44.364Z,93.98
2022-09-26T15:55:18.243Z,95.22
2022-09-26T15:57:49.182Z,94.98
2022-09-26T16:00:18.249Z,94.86
2022-09-26T16:02:47.000Z,96.96
2022-09-26T16:05:15.216Z,96.08
2022-09-26T16:07:51.179Z,95.28
2022-09-26T16:10:24.060Z,97.42
2022-09-26T16:12:54.790Z,97.91
2022-09-26T16:15:27.472Z,98.66
2022-09-26T16:17:57.787Z,97.95
2022-09-26T16:20:28.380Z,95.95
2022-09-26T16:23:04.372Z,97.77
2022-09-26T16:25:35.201Z,99.47
2022-09-26T16:28:35.176Z,100.00
2022-09-26T16:31:24.151Z,100.00
2022-09-26T16:33:53.642Z,100.00
2022-09-26T16:36:23.774Z,100.00
2022-09-26T16:38:55.516Z,100.00
2022-09-26T16:44:27.347Z,100.00
2022-09-26T16:46:56.332Z,100.00
2022-09-26T16:49:32.764Z,100.00
2022-09-26T16:52:32.322Z,100.00
2022-09-26T16:55:03.487Z,100.00
2022-09-26T16:57:32.093Z,100.00
2022-09-26T17:00:02.507Z,100.00
2022-09-26T17:02:30.356Z,100.00
2022-09-26T17:04:58.044Z,100.00
2022-09-26T17:07:25.663Z,100.00
2022-09-26T17:09:53.364Z,100.00
2022-09-26T17:12:23.639Z,100.00
2022-09-26T17:14:52.307Z,100.00
2022-09-26T17:17:22.339Z,100.00
2022-09-26T17:19:54.232Z,100.00
2022-09-26T17:22:27.157Z,100.00
2022-09-26T17:24:55.651Z,100.00
2022-09-26T17:27:27.805Z,100.00
2022-09-26T17:30:00.331Z,100.00
2022-09-26T17:32:31.076Z,100.00
2022-09-26T17:35:01.187Z,100.00
2022-09-26T17:37:29.203Z,100.00
2022-09-26T17:39:57.242Z,100.00
2022-09-26T17:42:26.410Z,100.00
2022-09-26T17:44:54.064Z,100.00
2022-09-26T17:47:22.049Z,100.00
2022-09-26T17:49:53.464Z,100.00
2022-09-26T17:52:24.337Z,100.00
2022-09-26T17:54:53.334Z,100.00
2022-09-26T17:57:21.068Z,100.00
2022-09-26T17:59:50.527Z,100.00
2022-09-26T18:02:23.225Z,100.00
2022-09-26T18:04:52.910Z,100.00
2022-09-26T18:07:22.161Z,100.00
2022-09-26T18:09:51.718Z,100.00
2022-09-26T18:12:21.521Z,100.00
2022-09-26T18:14:52.009Z,100.00
2022-09-26T18:17:19.711Z,100.00
2022-09-26T18:19:47.963Z,100.00
2022-09-26T18:22:17.970Z,100.00
2022-09-26T18:24:49.202Z,100.00
2022-09-26T18:27:17.519Z,100.00
2022-09-26T18:29:45.830Z,100.00
2022-09-26T18:32:23.452Z,100.00
2022-09-26T18:34:51.129Z,100.00
2022-09-26T18:37:18.806Z,100.00
2022-09-26T18:39:50.852Z,100.00
2022-09-26T18:42:23.273Z,100.00
2022-09-26T18:44:57.365Z,100.00
2022-09-26T18:47:26.747Z,100.00
2022-09-26T18:49:54.380Z,100.00
2022-09-26T18:52:22.060Z,100.00
2022-09-26T18:54:49.878Z,100.00
2022-09-26T18:57:17.511Z,100.00
2022-09-26T18:59:45.246Z,100.00
2022-09-26T19:02:21.185Z,100.00
2022-09-26T19:04:51.389Z,100.00
2022-09-26T19:07:21.940Z,100.00
2022-09-26T19:09:52.404Z,100.00
2022-09-26T19:12:20.436Z,100.00
2022-09-26T19:14:48.344Z,100.00
2022-09-26T19:17:16.389Z,100.00
2022-09-26T19:19:44.990Z,100.00
2022-09-26T19:22:16.781Z,100.00
2022-09-26T19:24:48.764Z,100.00
2022-09-26T19:27:19.820Z,100.00
2022-09-26T19:29:55.133Z,100.00
2022-09-26T19:32:30.936Z,100.00
2022-09-26T19:35:01.812Z,100.00
2022-09-26T19:37:32.661Z,100.00
2022-09-26T19:40:00.897Z,100.00
2022-09-26T19:42:28.708Z,100.00
2022-09-26T19:44:56.901Z,100.00
2022-09-26T19:47:25.561Z,100.00
2022-09-26T19:49:53.607Z,100.00
2022-09-26T19:52:23.493Z,100.00
2022-09-26T19:54:52.519Z,100.00
2022-09-26T19:57:21.785Z,100.00
2022-09-26T19:59:50.451Z,100.00
2022-09-26T20:02:20.016Z,100.00
2022-09-26T20:04:48.249Z,100.00
2022-09-26T20:07:17.746Z,100.00
2022-09-26T20:09:47.072Z,100.00
2022-09-26T20:12:16.255Z,100.00
2022-09-26T20:14:45.151Z,100.00
2022-09-26T20:17:18.865Z,100.00
2022-09-26T20:19:47.249Z,100.00
2022-09-26T20:22:16.774Z,100.00
2022-09-26T20:24:47.131Z,100.00
2022-09-26T20:27:19.354Z,100.00
2022-09-26T20:29:48.173Z,100.00
2022-09-26T20:32:15.859Z,100.00
2022-09-26T20:34:43.747Z,100.00
2022-09-26T20:37:13.741Z,100.00
2022-09-26T20:39:42.687Z,100.00
2022-09-26T20:42:18.062Z,100.00
2022-09-26T20:44:49.049Z,100.00
2022-09-26T20:47:19.540Z,100.00
2022-09-26T20:49:54.755Z,100.00
2022-09-26T20:52:24.360Z,100.00
2022-09-26T20:54:52.447Z,100.00
2022-09-26T20:57:22.123Z,100.00
2022-09-26T20:59:50.843Z,100.00
2022-09-26T21:02:28.219Z,100.00
2022-09-26T21:04:57.070Z,100.00
2022-09-26T21:07:26.478Z,100.00
2022-09-26T21:09:54.657Z,100.00
2022-09-26T21:12:25.037Z,100.00
2022-09-26T21:14:52.699Z,100.00
2022-09-26T21:17:23.728Z,100.00
2022-09-26T21:19:51.584Z,100.00
2022-09-26T21:22:23.094Z,100.00
2022-09-26T21:24:51.657Z,100.00
2022-09-26T21:27:19.564Z,100.00
2022-09-26T21:29:48.635Z,100.00
2022-09-26T21:32:20.568Z,100.00
2022-09-26T21:34:55.498Z,100.00
2022-09-26T21:37:23.408Z,100.00
2022-09-26T21:39:51.289Z,100.00
2022-09-26T21:42:19.037Z,100.00
2022-09-26T21:44:53.447Z,100.00
2022-09-26T21:47:21.064Z,100.00
2022-09-26T21:49:49.037Z,100.00
2022-09-26T21:52:21.607Z,100.00
2022-09-26T21:54:50.687Z,100.00
2022-09-26T21:57:22.398Z,100.00
2022-09-26T21:59:53.506Z,100.00
2022-09-26T22:02:21.276Z,100.00
2022-09-26T22:04:49.175Z,100.00
2022-09-26T22:07:16.741Z,100.00
2022-09-26T22:09:49.593Z,100.00
2022-09-26T22:12:17.693Z,100.00
2022-09-26T22:14:45.932Z,100.00
2022-09-26T22:17:15.594Z,100.00
2022-09-26T22:19:43.903Z,100.00
2022-09-26T22:22:11.556Z,100.00
2022-09-26T22:24:39.407Z,100.00
2022-09-26T22:27:07.060Z,100.00
2022-09-26T22:29:34.942Z,100.00
2022-09-26T22:32:02.805Z,100.00
2022-09-26T22:34:31.952Z,100.00
2022-09-26T22:36:59.817Z,100.00
2022-09-26T22:39:27.584Z,100.00
2022-09-26T22:41:55.178Z,100.00
2022-09-26T22:44:22.885Z,100.00
2022-09-26T22:46:50.599Z,100.00
2022-09-26T22:49:18.167Z,100.00
2022-09-26T22:51:47.190Z,100.00
2022-09-26T22:54:14.916Z,100.00
2022-09-26T22:56:43.013Z,100.00
2022-09-26T22:59:11.179Z,100.00
2022-09-26T23:01:39.579Z,100.00
2022-09-26T23:04:07.500Z,100.00
2022-09-26T23:06:35.086Z,100.00
2022-09-26T23:09:04.809Z,100.00
2022-09-26T23:11:32.607Z,100.00
2022-09-26T23:14:00.361Z,100.00
2022-09-26T23:16:28.154Z,100.00
2022-09-26T23:18:57.386Z,100.00
2022-09-26T23:21:27.362Z,100.00
2022-09-26T23:23:57.091Z,100.00
2022-09-26T23:26:27.878Z,100.00
2022-09-26T23:28:56.942Z,100.00
2022-09-26T23:31:26.164Z,100.00
2022-09-26T23:33:54.665Z,100.00
2022-09-26T23:36:23.107Z,100.00
2022-09-26T23:38:51.148Z,100.00
2022-09-26T23:41:19.072Z,100.00
2022-09-26T23:43:48.260Z,100.00
2022-09-26T23:46:16.321Z,100.00
2022-09-26T23:48:43.967Z,100.00
2022-09-26T23:51:13.569Z,100.00
2022-09-26T23:53:41.670Z,100.00
2022-09-26T23:56:11.129Z,100.00
2022-09-26T23:58:40.026Z,100.00
